SUD01A SKPS-SLLP
Flight info
| Callsign | SUD01A |
|---|---|
| Flight time | 2h 54m |
| Altitude | 35000 |
| Route | TISLU DCT PULTU DCT VUDKU DCT UMBAT DCT ASOLA DCT PUMSA DCT MUBIN DCT OPTOP |
| Aircraft | A320/M-SDFGHILORVWY/S |
Departure
| Time | 2026-05-06 12:25 |
|---|---|
| Airport | Antonio Nariño Airport (SKPS) |
Arrival
| Time | 2026-05-06 15:20 |
|---|---|
| Airport | El Alto International Airport (SLLP) |
| Time | Latitude | Longitude | Altitude | Speed | Heading |
|---|---|---|---|---|---|
| 2026-05-06 12:04 | 1.39576 | -77.28983 | 5908 ft | 0 kts | 105° |
| 2026-05-06 12:16 | 1.39577 | -77.28987 | 5881 ft | 3 kts | 105° |
| 2026-05-06 12:16 | 1.39584 | -77.29012 | 5907 ft | 4 kts | 107° |
| 2026-05-06 12:16 | 1.39592 | -77.29037 | 5907 ft | 3 kts | 109° |
| 2026-05-06 12:17 | 1.39595 | -77.29045 | 5908 ft | 0 kts | 109° |
| 2026-05-06 12:20 | 1.39594 | -77.29042 | 5908 ft | 2 kts | 109° |
| 2026-05-06 12:20 | 1.39573 | -77.29033 | 5908 ft | 6 kts | 187° |
| 2026-05-06 12:20 | 1.39519 | -77.29053 | 5909 ft | 11 kts | 227° |
| 2026-05-06 12:21 | 1.39523 | -77.29113 | 5912 ft | 0 kts | 283° |
| 2026-05-06 12:21 | 1.39533 | -77.29123 | 5912 ft | 5 kts | 322° |
| 2026-05-06 12:21 | 1.39601 | -77.29111 | 5908 ft | 16 kts | 15° |
| 2026-05-06 12:21 | 1.39742 | -77.29071 | 5903 ft | 26 kts | 14° |
| 2026-05-06 12:22 | 1.39867 | -77.29040 | 5892 ft | 31 kts | 14° |
| 2026-05-06 12:22 | 1.40013 | -77.29001 | 5886 ft | 23 kts | 15° |
| 2026-05-06 12:22 | 1.40181 | -77.28957 | 5879 ft | 27 kts | 14° |
| 2026-05-06 12:22 | 1.40362 | -77.28909 | 5862 ft | 27 kts | 15° |
| 2026-05-06 12:23 | 1.40541 | -77.28861 | 5866 ft | 22 kts | 14° |
| 2026-05-06 12:23 | 1.40620 | -77.28852 | 5851 ft | 4 kts | 59° |
| 2026-05-06 12:23 | 1.40612 | -77.28838 | 5851 ft | 0 kts | 165° |
| 2026-05-06 12:23 | 1.40609 | -77.28839 | 5852 ft | 1 kts | 188° |
| 2026-05-06 12:24 | 1.40598 | -77.28846 | 5852 ft | 4 kts | 208° |
| 2026-05-06 12:24 | 1.40578 | -77.28852 | 5853 ft | 0 kts | 193° |
| 2026-05-06 12:24 | 1.40456 | -77.28882 | 5865 ft | 51 kts | 195° |
| 2026-05-06 12:25 | 1.39871 | -77.29037 | 5894 ft | 119 kts | 195° |
| 2026-05-06 12:25 | 1.38892 | -77.29294 | 5963 ft | 169 kts | 195° |
| 2026-05-06 12:25 | 1.37781 | -77.29612 | 6754 ft | 163 kts | 195° |
| 2026-05-06 12:25 | 1.36700 | -77.29953 | 7400 ft | 161 kts | 198° |
| 2026-05-06 12:26 | 1.35667 | -77.30297 | 7724 ft | 156 kts | 198° |
| 2026-05-06 12:26 | 1.34615 | -77.30635 | 7825 ft | 162 kts | 195° |
| 2026-05-06 12:26 | 1.33543 | -77.30968 | 7994 ft | 163 kts | 198° |
| 2026-05-06 12:26 | 1.32470 | -77.31437 | 8107 ft | 175 kts | 204° |
| 2026-05-06 12:27 | 1.31332 | -77.32008 | 8162 ft | 191 kts | 204° |
| 2026-05-06 12:27 | 1.30089 | -77.32511 | 8394 ft | 196 kts | 192° |
| 2026-05-06 12:27 | 1.28719 | -77.32581 | 8479 ft | 196 kts | 167° |
| 2026-05-06 12:27 | 1.27419 | -77.32111 | 8555 ft | 207 kts | 150° |
| 2026-05-06 12:28 | 1.26197 | -77.31295 | 8656 ft | 220 kts | 143° |
| 2026-05-06 12:28 | 1.25010 | -77.30328 | 8930 ft | 221 kts | 139° |
| 2026-05-06 12:28 | 1.23900 | -77.29288 | 9219 ft | 217 kts | 132° |
| 2026-05-06 12:28 | 1.22991 | -77.28083 | 9581 ft | 222 kts | 120° |
| 2026-05-06 12:29 | 1.22362 | -77.26628 | 9738 ft | 236 kts | 107° |
| 2026-05-06 12:29 | 1.21932 | -77.24999 | 9842 ft | 248 kts | 114° |
| 2026-05-06 12:29 | 1.21106 | -77.23449 | 9997 ft | 259 kts | 121° |
| 2026-05-06 12:29 | 1.20161 | -77.21850 | 10129 ft | 275 kts | 120° |
| 2026-05-06 12:30 | 1.19263 | -77.20155 | 10412 ft | 276 kts | 114° |
| 2026-05-06 12:30 | 1.18596 | -77.18370 | 10763 ft | 274 kts | 108° |
| 2026-05-06 12:30 | 1.18178 | -77.16565 | 11292 ft | 261 kts | 101° |
| 2026-05-06 12:30 | 1.18009 | -77.14797 | 11908 ft | 251 kts | 93° |
| 2026-05-06 12:31 | 1.18062 | -77.13073 | 12478 ft | 245 kts | 86° |
| 2026-05-06 12:31 | 1.18342 | -77.11409 | 12886 ft | 244 kts | 80° |
| 2026-05-06 12:31 | 1.18960 | -77.09836 | 13273 ft | 250 kts | 66° |
| 2026-05-06 12:31 | 1.19893 | -77.08326 | 13377 ft | 259 kts | 68° |
| 2026-05-06 12:32 | 1.20349 | -77.06614 | 13499 ft | 258 kts | 95° |
| 2026-05-06 12:32 | 1.19942 | -77.04948 | 13628 ft | 266 kts | 118° |
| 2026-05-06 12:32 | 1.18947 | -77.03319 | 13771 ft | 287 kts | 123° |
| 2026-05-06 12:32 | 1.17790 | -77.01610 | 13896 ft | 306 kts | 123° |
| 2026-05-06 12:33 | 1.16518 | -76.99819 | 14032 ft | 326 kts | 129° |
| 2026-05-06 12:33 | 1.14972 | -76.98083 | 14143 ft | 343 kts | 131° |
| 2026-05-06 12:33 | 1.13317 | -76.96302 | 14400 ft | 353 kts | 132° |
| 2026-05-06 12:33 | 1.11627 | -76.94496 | 14815 ft | 357 kts | 131° |
| 2026-05-06 12:34 | 1.09915 | -76.92665 | 15096 ft | 366 kts | 131° |
| 2026-05-06 12:34 | 1.08232 | -76.90732 | 15476 ft | 371 kts | 128° |
| 2026-05-06 12:34 | 1.06620 | -76.88703 | 15930 ft | 374 kts | 127° |
| 2026-05-06 12:34 | 1.05027 | -76.86631 | 16377 ft | 378 kts | 126° |
| 2026-05-06 12:35 | 1.03466 | -76.84563 | 16792 ft | 381 kts | 126° |
| 2026-05-06 12:35 | 1.01886 | -76.82459 | 17256 ft | 385 kts | 126° |
| 2026-05-06 12:35 | 1.00234 | -76.80264 | 17737 ft | 388 kts | 126° |
| 2026-05-06 12:35 | 0.98599 | -76.78108 | 18154 ft | 391 kts | 126° |
| 2026-05-06 12:36 | 0.96965 | -76.75968 | 18589 ft | 394 kts | 126° |
| 2026-05-06 12:36 | 0.95298 | -76.73793 | 18984 ft | 396 kts | 126° |
| 2026-05-06 12:36 | 0.93609 | -76.71590 | 19375 ft | 399 kts | 126° |
| 2026-05-06 12:36 | 0.91921 | -76.69385 | 19778 ft | 401 kts | 126° |
| 2026-05-06 12:37 | 0.90217 | -76.67158 | 20162 ft | 404 kts | 126° |
| 2026-05-06 12:37 | 0.88505 | -76.64923 | 20524 ft | 407 kts | 126° |
| 2026-05-06 12:37 | 0.86778 | -76.62669 | 20863 ft | 409 kts | 126° |
| 2026-05-06 12:37 | 0.85040 | -76.60401 | 21220 ft | 412 kts | 126° |
| 2026-05-06 12:38 | 0.83295 | -76.58124 | 21569 ft | 414 kts | 126° |
| 2026-05-06 12:38 | 0.81538 | -76.55827 | 21900 ft | 417 kts | 125° |
| 2026-05-06 12:38 | 0.79773 | -76.53518 | 22240 ft | 419 kts | 125° |
| 2026-05-06 12:38 | 0.77995 | -76.51194 | 22571 ft | 422 kts | 125° |
| 2026-05-06 12:39 | 0.76211 | -76.48860 | 22877 ft | 424 kts | 125° |
| 2026-05-06 12:39 | 0.74415 | -76.46512 | 23193 ft | 426 kts | 125° |
| 2026-05-06 12:39 | 0.72612 | -76.44155 | 23507 ft | 429 kts | 125° |
| 2026-05-06 12:39 | 0.70796 | -76.41784 | 23785 ft | 431 kts | 125° |
| 2026-05-06 12:40 | 0.68972 | -76.39404 | 24005 ft | 432 kts | 125° |
| 2026-05-06 12:40 | 0.67143 | -76.37015 | 24256 ft | 434 kts | 125° |
| 2026-05-06 12:40 | 0.65305 | -76.34613 | 24496 ft | 435 kts | 125° |
| 2026-05-06 12:40 | 0.63461 | -76.32206 | 24745 ft | 437 kts | 125° |
| 2026-05-06 12:41 | 0.61616 | -76.29796 | 24996 ft | 438 kts | 125° |
| 2026-05-06 12:41 | 0.59763 | -76.27372 | 25232 ft | 439 kts | 125° |
| 2026-05-06 12:41 | 0.57907 | -76.24940 | 25461 ft | 441 kts | 125° |
| 2026-05-06 12:41 | 0.56067 | -76.22532 | 25697 ft | 442 kts | 125° |
| 2026-05-06 12:42 | 0.54197 | -76.20087 | 25917 ft | 444 kts | 126° |
| 2026-05-06 12:42 | 0.52320 | -76.17636 | 26160 ft | 445 kts | 126° |
| 2026-05-06 12:42 | 0.50436 | -76.15176 | 26393 ft | 446 kts | 126° |
| 2026-05-06 12:42 | 0.48548 | -76.12709 | 26603 ft | 448 kts | 126° |
| 2026-05-06 12:43 | 0.46653 | -76.10237 | 26808 ft | 449 kts | 126° |
| 2026-05-06 12:43 | 0.44751 | -76.07755 | 27010 ft | 451 kts | 126° |
| 2026-05-06 12:43 | 0.42839 | -76.05260 | 27207 ft | 452 kts | 126° |
| 2026-05-06 12:43 | 0.40925 | -76.02757 | 27412 ft | 454 kts | 126° |
| 2026-05-06 12:44 | 0.39006 | -76.00249 | 27613 ft | 455 kts | 126° |
| 2026-05-06 12:44 | 0.37085 | -75.97737 | 27808 ft | 456 kts | 126° |
| 2026-05-06 12:44 | 0.35159 | -75.95219 | 27988 ft | 457 kts | 126° |
| 2026-05-06 12:44 | 0.33224 | -75.92692 | 28167 ft | 458 kts | 126° |
| 2026-05-06 12:45 | 0.31285 | -75.90159 | 28336 ft | 460 kts | 126° |
| 2026-05-06 12:45 | 0.29336 | -75.87617 | 28511 ft | 461 kts | 126° |
| 2026-05-06 12:45 | 0.25428 | -75.82521 | 28829 ft | 463 kts | 126° |
| 2026-05-06 12:46 | 0.23471 | -75.79966 | 28968 ft | 464 kts | 126° |
| 2026-05-06 12:46 | 0.21512 | -75.77407 | 29178 ft | 464 kts | 126° |
| 2026-05-06 12:46 | 0.19555 | -75.74848 | 29386 ft | 463 kts | 126° |
| 2026-05-06 12:46 | 0.17604 | -75.72296 | 29613 ft | 462 kts | 126° |
| 2026-05-06 12:47 | 0.15652 | -75.69743 | 29830 ft | 462 kts | 126° |
| 2026-05-06 12:47 | 0.13706 | -75.67198 | 30056 ft | 461 kts | 126° |
| 2026-05-06 12:47 | 0.11757 | -75.64651 | 30251 ft | 461 kts | 126° |
| 2026-05-06 12:47 | 0.09812 | -75.62109 | 30424 ft | 460 kts | 126° |
| 2026-05-06 12:48 | 0.07669 | -75.59726 | 30616 ft | 462 kts | 135° |
| 2026-05-06 12:48 | 0.05138 | -75.57741 | 30791 ft | 465 kts | 145° |
| 2026-05-06 12:48 | 0.02280 | -75.56220 | 30973 ft | 467 kts | 155° |
| 2026-05-06 12:48 | -0.00735 | -75.55001 | 31154 ft | 467 kts | 156° |
| 2026-05-06 12:49 | -0.03747 | -75.53786 | 31331 ft | 467 kts | 156° |
| 2026-05-06 12:49 | -0.06755 | -75.52566 | 31514 ft | 467 kts | 155° |
| 2026-05-06 12:49 | -0.09761 | -75.51341 | 31699 ft | 466 kts | 155° |
| 2026-05-06 12:49 | -0.12764 | -75.50115 | 31890 ft | 466 kts | 155° |
| 2026-05-06 12:50 | -0.15767 | -75.48890 | 32083 ft | 466 kts | 155° |
| 2026-05-06 12:50 | -0.18725 | -75.47686 | 32275 ft | 465 kts | 155° |
| 2026-05-06 12:50 | -0.21719 | -75.46471 | 32470 ft | 465 kts | 156° |
| 2026-05-06 12:50 | -0.24716 | -75.45258 | 32661 ft | 464 kts | 156° |
| 2026-05-06 12:51 | -0.27708 | -75.44046 | 32864 ft | 464 kts | 155° |
| 2026-05-06 12:51 | -0.30740 | -75.42814 | 33053 ft | 464 kts | 155° |
| 2026-05-06 12:51 | -0.33685 | -75.41617 | 33235 ft | 464 kts | 156° |
| 2026-05-06 12:51 | -0.36678 | -75.40400 | 33410 ft | 464 kts | 156° |
| 2026-05-06 12:52 | -0.39664 | -75.39188 | 33604 ft | 464 kts | 156° |
| 2026-05-06 12:52 | -0.42646 | -75.37977 | 33798 ft | 463 kts | 156° |
| 2026-05-06 12:52 | -0.45633 | -75.36762 | 33990 ft | 463 kts | 156° |
| 2026-05-06 12:52 | -0.48619 | -75.35548 | 34170 ft | 463 kts | 156° |
| 2026-05-06 12:53 | -0.51594 | -75.34339 | 34337 ft | 462 kts | 156° |
| 2026-05-06 12:53 | -0.54568 | -75.33131 | 34503 ft | 462 kts | 156° |
| 2026-05-06 12:53 | -0.57546 | -75.31920 | 34667 ft | 462 kts | 156° |
| 2026-05-06 12:53 | -0.60530 | -75.30708 | 34828 ft | 461 kts | 156° |
| 2026-05-06 12:54 | -0.63498 | -75.29503 | 34991 ft | 461 kts | 156° |
| 2026-05-06 12:54 | -0.69449 | -75.27089 | 35061 ft | 462 kts | 156° |
| 2026-05-06 12:55 | -0.75409 | -75.24667 | 35063 ft | 461 kts | 156° |
| 2026-05-06 12:55 | -0.81328 | -75.22262 | 35063 ft | 458 kts | 156° |
| 2026-05-06 12:56 | -0.87239 | -75.19863 | 35064 ft | 458 kts | 156° |
| 2026-05-06 12:56 | -0.93144 | -75.17465 | 35066 ft | 458 kts | 156° |
| 2026-05-06 12:57 | -0.99053 | -75.15064 | 35065 ft | 458 kts | 156° |
| 2026-05-06 12:57 | -1.04957 | -75.12666 | 35068 ft | 458 kts | 156° |
| 2026-05-06 12:58 | -1.10820 | -75.10280 | 35067 ft | 458 kts | 156° |
| 2026-05-06 12:58 | -1.16732 | -75.07884 | 35061 ft | 459 kts | 155° |
| 2026-05-06 12:59 | -1.22648 | -75.05484 | 35059 ft | 459 kts | 155° |
| 2026-05-06 12:59 | -1.28569 | -75.03076 | 35061 ft | 460 kts | 155° |
| 2026-05-06 13:00 | -1.34493 | -75.00666 | 35062 ft | 460 kts | 155° |
| 2026-05-06 13:00 | -1.40426 | -74.98257 | 35062 ft | 460 kts | 155° |
| 2026-05-06 13:01 | -1.46340 | -74.95854 | 35068 ft | 460 kts | 155° |
| 2026-05-06 13:01 | -1.52277 | -74.93434 | 35070 ft | 461 kts | 156° |
| 2026-05-06 13:02 | -1.58213 | -74.91019 | 35070 ft | 461 kts | 156° |
| 2026-05-06 13:02 | -1.64146 | -74.88606 | 35075 ft | 461 kts | 156° |
| 2026-05-06 13:03 | -1.70095 | -74.86193 | 35081 ft | 461 kts | 156° |
| 2026-05-06 13:03 | -1.76034 | -74.83779 | 35080 ft | 461 kts | 156° |
| 2026-05-06 13:04 | -1.81940 | -74.81380 | 35077 ft | 461 kts | 156° |
| 2026-05-06 13:04 | -1.87883 | -74.78968 | 35084 ft | 461 kts | 156° |
| 2026-05-06 13:05 | -1.93826 | -74.76550 | 35077 ft | 461 kts | 156° |
| 2026-05-06 13:05 | -1.99762 | -74.74131 | 35073 ft | 461 kts | 156° |
| 2026-05-06 13:06 | -2.05701 | -74.71717 | 35077 ft | 461 kts | 156° |
| 2026-05-06 13:06 | -2.11640 | -74.69297 | 35079 ft | 461 kts | 156° |
| 2026-05-06 13:07 | -2.17579 | -74.66880 | 35080 ft | 461 kts | 156° |
| 2026-05-06 13:07 | -2.23516 | -74.64467 | 35075 ft | 461 kts | 156° |
| 2026-05-06 13:08 | -2.29453 | -74.62049 | 35068 ft | 461 kts | 156° |
| 2026-05-06 13:08 | -2.35402 | -74.59630 | 35069 ft | 462 kts | 156° |
| 2026-05-06 13:09 | -2.41358 | -74.57209 | 35078 ft | 462 kts | 156° |
| 2026-05-06 13:09 | -2.47314 | -74.54788 | 35072 ft | 462 kts | 156° |
| 2026-05-06 13:10 | -2.53271 | -74.52361 | 35077 ft | 462 kts | 156° |
| 2026-05-06 13:10 | -2.59235 | -74.49937 | 35076 ft | 463 kts | 156° |
| 2026-05-06 13:11 | -2.64192 | -74.47921 | 35074 ft | 463 kts | 156° |
| 2026-05-06 13:11 | -2.70161 | -74.45493 | 35075 ft | 463 kts | 156° |
| 2026-05-06 13:12 | -2.76127 | -74.43068 | 35078 ft | 463 kts | 156° |
| 2026-05-06 13:12 | -2.82091 | -74.40635 | 35075 ft | 463 kts | 156° |
| 2026-05-06 13:13 | -2.88053 | -74.38203 | 35067 ft | 463 kts | 156° |
| 2026-05-06 13:13 | -2.94027 | -74.35768 | 35078 ft | 463 kts | 156° |
| 2026-05-06 13:14 | -2.99994 | -74.33340 | 35076 ft | 463 kts | 156° |
| 2026-05-06 13:14 | -3.05960 | -74.30911 | 35078 ft | 463 kts | 155° |
| 2026-05-06 13:15 | -3.11922 | -74.28476 | 35075 ft | 463 kts | 155° |
| 2026-05-06 13:15 | -3.17886 | -74.26040 | 35080 ft | 463 kts | 155° |
| 2026-05-06 13:16 | -3.23820 | -74.23628 | 35079 ft | 463 kts | 156° |
| 2026-05-06 13:16 | -3.29795 | -74.21205 | 35079 ft | 464 kts | 156° |
| 2026-05-06 13:17 | -3.35764 | -74.18765 | 35075 ft | 464 kts | 155° |
| 2026-05-06 13:17 | -3.41740 | -74.16328 | 35074 ft | 463 kts | 156° |
| 2026-05-06 13:18 | -3.47710 | -74.13895 | 35079 ft | 463 kts | 156° |
| 2026-05-06 13:18 | -3.53672 | -74.11450 | 35073 ft | 463 kts | 153° |
| 2026-05-06 13:19 | -3.59336 | -74.08424 | 35070 ft | 461 kts | 149° |
| 2026-05-06 13:19 | -3.64961 | -74.05338 | 35071 ft | 461 kts | 149° |
| 2026-05-06 13:20 | -3.70599 | -74.02255 | 35067 ft | 462 kts | 149° |
| 2026-05-06 13:20 | -3.76244 | -73.99165 | 35063 ft | 463 kts | 149° |
| 2026-05-06 13:21 | -3.81895 | -73.96077 | 35066 ft | 463 kts | 149° |
| 2026-05-06 13:21 | -3.87544 | -73.92983 | 35060 ft | 463 kts | 149° |
| 2026-05-06 13:22 | -3.93197 | -73.89879 | 35065 ft | 463 kts | 149° |
| 2026-05-06 13:22 | -3.98844 | -73.86780 | 35072 ft | 463 kts | 149° |
| 2026-05-06 13:23 | -4.04502 | -73.83680 | 35074 ft | 464 kts | 149° |
| 2026-05-06 13:23 | -4.10165 | -73.80581 | 35071 ft | 463 kts | 149° |
| 2026-05-06 13:24 | -4.15822 | -73.77480 | 35075 ft | 463 kts | 149° |
| 2026-05-06 13:24 | -4.21473 | -73.74376 | 35074 ft | 463 kts | 149° |
| 2026-05-06 13:25 | -4.27127 | -73.71273 | 35079 ft | 464 kts | 149° |
| 2026-05-06 13:25 | -4.32789 | -73.68166 | 35078 ft | 464 kts | 149° |
| 2026-05-06 13:26 | -4.38456 | -73.65062 | 35072 ft | 464 kts | 149° |
| 2026-05-06 13:26 | -4.44126 | -73.61949 | 35064 ft | 466 kts | 149° |
| 2026-05-06 13:27 | -4.49778 | -73.58844 | 35060 ft | 467 kts | 149° |
| 2026-05-06 13:27 | -4.55483 | -73.55711 | 35062 ft | 468 kts | 149° |
| 2026-05-06 13:28 | -4.61194 | -73.52572 | 35064 ft | 468 kts | 149° |
| 2026-05-06 13:28 | -4.66907 | -73.49434 | 35071 ft | 468 kts | 149° |
| 2026-05-06 13:29 | -4.72618 | -73.46299 | 35066 ft | 468 kts | 149° |
| 2026-05-06 13:29 | -4.78336 | -73.43162 | 35073 ft | 468 kts | 149° |
| 2026-05-06 13:30 | -4.84052 | -73.40024 | 35074 ft | 468 kts | 149° |
| 2026-05-06 13:30 | -4.89766 | -73.36882 | 35074 ft | 468 kts | 149° |
| 2026-05-06 13:31 | -4.95476 | -73.33736 | 35082 ft | 468 kts | 149° |
| 2026-05-06 13:31 | -5.01194 | -73.30591 | 35078 ft | 468 kts | 149° |
| 2026-05-06 13:32 | -5.06914 | -73.27457 | 35079 ft | 469 kts | 149° |
| 2026-05-06 13:32 | -5.12639 | -73.24307 | 35086 ft | 469 kts | 149° |
| 2026-05-06 13:33 | -5.18349 | -73.21161 | 35085 ft | 468 kts | 149° |
| 2026-05-06 13:33 | -5.24062 | -73.18026 | 35086 ft | 468 kts | 149° |
| 2026-05-06 13:34 | -5.29771 | -73.14886 | 35089 ft | 468 kts | 149° |
| 2026-05-06 13:34 | -5.35439 | -73.11765 | 35089 ft | 468 kts | 149° |
| 2026-05-06 13:35 | -5.41140 | -73.08628 | 35088 ft | 467 kts | 149° |
| 2026-05-06 13:35 | -5.46881 | -73.05467 | 35089 ft | 467 kts | 149° |
| 2026-05-06 13:36 | -5.52535 | -73.02344 | 35091 ft | 467 kts | 149° |
| 2026-05-06 13:36 | -5.58241 | -72.99202 | 35092 ft | 467 kts | 149° |
| 2026-05-06 13:37 | -5.63935 | -72.96068 | 35090 ft | 467 kts | 149° |
| 2026-05-06 13:37 | -5.69726 | -72.93097 | 35087 ft | 468 kts | 153° |
| 2026-05-06 13:38 | -5.75636 | -72.90376 | 35086 ft | 468 kts | 154° |
| 2026-05-06 13:38 | -5.81569 | -72.87675 | 35084 ft | 468 kts | 154° |
| 2026-05-06 13:39 | -5.87474 | -72.84900 | 35070 ft | 469 kts | 153° |
| 2026-05-06 13:39 | -5.93363 | -72.82081 | 35065 ft | 469 kts | 153° |
| 2026-05-06 13:40 | -5.99267 | -72.79261 | 35069 ft | 470 kts | 153° |
| 2026-05-06 13:40 | -6.05174 | -72.76459 | 35078 ft | 470 kts | 153° |
| 2026-05-06 13:41 | -6.11092 | -72.73659 | 35082 ft | 470 kts | 153° |
| 2026-05-06 13:41 | -6.17018 | -72.70858 | 35086 ft | 470 kts | 153° |
| 2026-05-06 13:42 | -6.22944 | -72.68043 | 35073 ft | 471 kts | 153° |
| 2026-05-06 13:42 | -6.28873 | -72.65224 | 35071 ft | 472 kts | 153° |
| 2026-05-06 13:43 | -6.34813 | -72.62405 | 35076 ft | 473 kts | 153° |
| 2026-05-06 13:43 | -6.40764 | -72.59579 | 35074 ft | 473 kts | 153° |
| 2026-05-06 13:44 | -6.46716 | -72.56751 | 35078 ft | 473 kts | 153° |
| 2026-05-06 13:44 | -6.52671 | -72.53927 | 35078 ft | 473 kts | 153° |
| 2026-05-06 13:45 | -6.58636 | -72.51090 | 35064 ft | 474 kts | 153° |
| 2026-05-06 13:45 | -6.67551 | -72.46852 | 35075 ft | 475 kts | 153° |
| 2026-05-06 13:46 | -6.73573 | -72.43993 | 35078 ft | 475 kts | 153° |
| 2026-05-06 13:46 | -6.79553 | -72.41147 | 35081 ft | 476 kts | 153° |
| 2026-05-06 13:47 | -6.85532 | -72.38296 | 35081 ft | 476 kts | 153° |
| 2026-05-06 13:47 | -6.91516 | -72.35443 | 35082 ft | 475 kts | 154° |
| 2026-05-06 13:48 | -6.97494 | -72.32593 | 35081 ft | 475 kts | 154° |
| 2026-05-06 13:48 | -7.03429 | -72.29771 | 35082 ft | 475 kts | 154° |
| 2026-05-06 13:49 | -7.09401 | -72.26934 | 35084 ft | 475 kts | 154° |
| 2026-05-06 13:49 | -7.15378 | -72.24084 | 35087 ft | 475 kts | 153° |
| 2026-05-06 13:50 | -7.21344 | -72.21236 | 35085 ft | 475 kts | 153° |
| 2026-05-06 13:50 | -7.27313 | -72.18387 | 35086 ft | 475 kts | 154° |
| 2026-05-06 13:51 | -7.33284 | -72.15543 | 35088 ft | 475 kts | 154° |
| 2026-05-06 13:51 | -7.39256 | -72.12695 | 35087 ft | 475 kts | 154° |
| 2026-05-06 13:52 | -7.45232 | -72.09844 | 35090 ft | 475 kts | 153° |
| 2026-05-06 13:52 | -7.51205 | -72.06993 | 35090 ft | 475 kts | 154° |
| 2026-05-06 13:53 | -7.57182 | -72.04148 | 35090 ft | 475 kts | 154° |
| 2026-05-06 13:53 | -7.63159 | -72.01298 | 35090 ft | 475 kts | 154° |
| 2026-05-06 13:54 | -7.69130 | -71.98440 | 35088 ft | 475 kts | 153° |
| 2026-05-06 13:54 | -7.75100 | -71.95580 | 35089 ft | 475 kts | 154° |
| 2026-05-06 13:55 | -7.81070 | -71.92730 | 35090 ft | 475 kts | 154° |
| 2026-05-06 13:55 | -7.87017 | -71.89891 | 35088 ft | 475 kts | 153° |
| 2026-05-06 13:56 | -7.92977 | -71.87034 | 35086 ft | 475 kts | 153° |
| 2026-05-06 13:56 | -7.98957 | -71.84174 | 35090 ft | 475 kts | 153° |
| 2026-05-06 13:57 | -8.04935 | -71.81315 | 35091 ft | 475 kts | 153° |
| 2026-05-06 13:57 | -8.10907 | -71.78458 | 35090 ft | 475 kts | 153° |
| 2026-05-06 13:58 | -8.16883 | -71.75594 | 35094 ft | 475 kts | 153° |
| 2026-05-06 13:58 | -8.21890 | -71.73190 | 35095 ft | 475 kts | 153° |
| 2026-05-06 13:59 | -8.27823 | -71.70345 | 35094 ft | 475 kts | 153° |
| 2026-05-06 13:59 | -8.33800 | -71.67489 | 35091 ft | 475 kts | 153° |
| 2026-05-06 14:00 | -8.39766 | -71.64627 | 35094 ft | 475 kts | 153° |
| 2026-05-06 14:00 | -8.45728 | -71.61764 | 35095 ft | 474 kts | 153° |
| 2026-05-06 14:01 | -8.51685 | -71.58904 | 35095 ft | 474 kts | 153° |
| 2026-05-06 14:01 | -8.57658 | -71.56039 | 35092 ft | 474 kts | 153° |
| 2026-05-06 14:02 | -8.63610 | -71.53179 | 35087 ft | 474 kts | 153° |
| 2026-05-06 14:02 | -8.69572 | -71.50318 | 35092 ft | 474 kts | 153° |
| 2026-05-06 14:03 | -8.75520 | -71.47455 | 35095 ft | 473 kts | 153° |
| 2026-05-06 14:03 | -8.81469 | -71.44599 | 35095 ft | 473 kts | 153° |
| 2026-05-06 14:04 | -8.87409 | -71.41741 | 35093 ft | 473 kts | 153° |
| 2026-05-06 14:04 | -8.93354 | -71.38878 | 35093 ft | 473 kts | 153° |
| 2026-05-06 14:05 | -8.99293 | -71.36021 | 35090 ft | 473 kts | 154° |
| 2026-05-06 14:05 | -9.05203 | -71.33180 | 35091 ft | 473 kts | 154° |
| 2026-05-06 14:06 | -9.11142 | -71.30315 | 35092 ft | 473 kts | 154° |
| 2026-05-06 14:06 | -9.17085 | -71.27448 | 35090 ft | 472 kts | 154° |
| 2026-05-06 14:07 | -9.23024 | -71.24589 | 35085 ft | 472 kts | 154° |
| 2026-05-06 14:07 | -9.28949 | -71.21732 | 35081 ft | 472 kts | 154° |
| 2026-05-06 14:08 | -9.34877 | -71.18878 | 35078 ft | 472 kts | 154° |
| 2026-05-06 14:08 | -9.40808 | -71.16016 | 35073 ft | 472 kts | 154° |
| 2026-05-06 14:09 | -9.46739 | -71.13145 | 35072 ft | 473 kts | 154° |
| 2026-05-06 14:09 | -9.52673 | -71.10281 | 35073 ft | 473 kts | 154° |
| 2026-05-06 14:10 | -9.58618 | -71.07413 | 35072 ft | 473 kts | 154° |
| 2026-05-06 14:10 | -9.64564 | -71.04541 | 35079 ft | 473 kts | 154° |
| 2026-05-06 14:11 | -9.70507 | -71.01668 | 35082 ft | 474 kts | 154° |
| 2026-05-06 14:11 | -9.76463 | -70.98787 | 35083 ft | 474 kts | 154° |
| 2026-05-06 14:12 | -9.82458 | -70.95989 | 35080 ft | 475 kts | 156° |
| 2026-05-06 14:12 | -9.88609 | -70.93547 | 35081 ft | 475 kts | 159° |
| 2026-05-06 14:13 | -9.94804 | -70.91221 | 35081 ft | 475 kts | 159° |
| 2026-05-06 14:13 | -10.00964 | -70.88817 | 35082 ft | 474 kts | 158° |
| 2026-05-06 14:14 | -10.07056 | -70.86375 | 35076 ft | 474 kts | 158° |
| 2026-05-06 14:14 | -10.13190 | -70.83901 | 35081 ft | 474 kts | 158° |
| 2026-05-06 14:15 | -10.19322 | -70.81453 | 35087 ft | 474 kts | 158° |
| 2026-05-06 14:15 | -10.25457 | -70.79010 | 35088 ft | 474 kts | 158° |
| 2026-05-06 14:16 | -10.31592 | -70.76567 | 35088 ft | 474 kts | 158° |
| 2026-05-06 14:16 | -10.37738 | -70.74121 | 35091 ft | 474 kts | 158° |
| 2026-05-06 14:17 | -10.43878 | -70.71673 | 35086 ft | 474 kts | 158° |
| 2026-05-06 14:17 | -10.50019 | -70.69219 | 35085 ft | 475 kts | 158° |
| 2026-05-06 14:18 | -10.56163 | -70.66766 | 35084 ft | 475 kts | 158° |
| 2026-05-06 14:18 | -10.62318 | -70.64305 | 35087 ft | 475 kts | 158° |
| 2026-05-06 14:19 | -10.68477 | -70.61844 | 35093 ft | 476 kts | 158° |
| 2026-05-06 14:19 | -10.74638 | -70.59377 | 35086 ft | 476 kts | 158° |
| 2026-05-06 14:20 | -10.80812 | -70.56905 | 35087 ft | 477 kts | 158° |
| 2026-05-06 14:20 | -10.86984 | -70.54440 | 35088 ft | 477 kts | 158° |
| 2026-05-06 14:21 | -10.93162 | -70.51967 | 35090 ft | 477 kts | 158° |
| 2026-05-06 14:21 | -10.99337 | -70.49494 | 35089 ft | 477 kts | 158° |
| 2026-05-06 14:22 | -11.05516 | -70.47012 | 35088 ft | 477 kts | 158° |
| 2026-05-06 14:22 | -11.11685 | -70.44533 | 35090 ft | 477 kts | 158° |
| 2026-05-06 14:23 | -11.17858 | -70.42056 | 35088 ft | 477 kts | 158° |
| 2026-05-06 14:23 | -11.23988 | -70.39598 | 35086 ft | 476 kts | 158° |
| 2026-05-06 14:24 | -11.30191 | -70.37108 | 35082 ft | 476 kts | 158° |
| 2026-05-06 14:24 | -11.36356 | -70.34631 | 35081 ft | 476 kts | 158° |
| 2026-05-06 14:25 | -11.42476 | -70.32165 | 35073 ft | 477 kts | 158° |
| 2026-05-06 14:25 | -11.48653 | -70.29684 | 35071 ft | 477 kts | 158° |
| 2026-05-06 14:26 | -11.54836 | -70.27208 | 35069 ft | 478 kts | 158° |
| 2026-05-06 14:26 | -11.61061 | -70.24703 | 35072 ft | 478 kts | 158° |
| 2026-05-06 14:27 | -11.67248 | -70.22205 | 35080 ft | 478 kts | 158° |
| 2026-05-06 14:27 | -11.73400 | -70.19719 | 35077 ft | 479 kts | 158° |
| 2026-05-06 14:28 | -11.79593 | -70.17219 | 35082 ft | 479 kts | 158° |
| 2026-05-06 14:28 | -11.85789 | -70.14731 | 35084 ft | 478 kts | 158° |
| 2026-05-06 14:29 | -11.91979 | -70.12236 | 35087 ft | 478 kts | 158° |
| 2026-05-06 14:29 | -11.98170 | -70.09733 | 35087 ft | 478 kts | 158° |
| 2026-05-06 14:30 | -12.04349 | -70.07234 | 35090 ft | 478 kts | 158° |
| 2026-05-06 14:30 | -12.10538 | -70.04734 | 35080 ft | 478 kts | 158° |
| 2026-05-06 14:31 | -12.16693 | -70.02246 | 35087 ft | 479 kts | 158° |
| 2026-05-06 14:31 | -12.22931 | -69.99718 | 35089 ft | 479 kts | 158° |
| 2026-05-06 14:32 | -12.29086 | -69.97221 | 35088 ft | 479 kts | 158° |
| 2026-05-06 14:32 | -12.35323 | -69.94701 | 35091 ft | 479 kts | 158° |
| 2026-05-06 14:33 | -12.41489 | -69.92207 | 35084 ft | 479 kts | 158° |
| 2026-05-06 14:33 | -12.47689 | -69.89696 | 35085 ft | 480 kts | 158° |
| 2026-05-06 14:34 | -12.53893 | -69.87184 | 35082 ft | 480 kts | 158° |
| 2026-05-06 14:34 | -12.60093 | -69.84666 | 35089 ft | 479 kts | 158° |
| 2026-05-06 14:35 | -12.66298 | -69.82150 | 35088 ft | 479 kts | 158° |
| 2026-05-06 14:35 | -12.72497 | -69.79625 | 35086 ft | 479 kts | 158° |
| 2026-05-06 14:36 | -12.78697 | -69.77102 | 35082 ft | 480 kts | 158° |
| 2026-05-06 14:36 | -12.84897 | -69.74573 | 35083 ft | 480 kts | 158° |
| 2026-05-06 14:37 | -12.91008 | -69.71818 | 35080 ft | 480 kts | 155° |
| 2026-05-06 14:37 | -12.97041 | -69.68874 | 35088 ft | 480 kts | 154° |
| 2026-05-06 14:38 | -13.03083 | -69.65951 | 35088 ft | 480 kts | 155° |
| 2026-05-06 14:38 | -13.09156 | -69.63093 | 35091 ft | 480 kts | 156° |
| 2026-05-06 14:39 | -13.15234 | -69.60260 | 35091 ft | 480 kts | 156° |
| 2026-05-06 14:39 | -13.21311 | -69.57412 | 35092 ft | 480 kts | 155° |
| 2026-05-06 14:40 | -13.27376 | -69.54551 | 35100 ft | 480 kts | 155° |
| 2026-05-06 14:40 | -13.33443 | -69.51682 | 35091 ft | 480 kts | 155° |
| 2026-05-06 14:41 | -13.39504 | -69.48825 | 35103 ft | 479 kts | 156° |
| 2026-05-06 14:41 | -13.45753 | -69.46454 | 35101 ft | 479 kts | 161° |
| 2026-05-06 14:42 | -13.52054 | -69.44224 | 35125 ft | 479 kts | 161° |
| 2026-05-06 14:42 | -13.58358 | -69.41980 | 35127 ft | 479 kts | 161° |
| 2026-05-06 14:43 | -13.64662 | -69.39732 | 35155 ft | 480 kts | 161° |
| 2026-05-06 14:43 | -13.70961 | -69.37481 | 35138 ft | 480 kts | 161° |
| 2026-05-06 14:44 | -13.77225 | -69.35245 | 35160 ft | 480 kts | 162° |
| 2026-05-06 14:45 | -13.86678 | -69.31866 | 35153 ft | 480 kts | 162° |
| 2026-05-06 14:45 | -13.92990 | -69.29618 | 35185 ft | 480 kts | 162° |
| 2026-05-06 14:46 | -13.98270 | -69.27727 | 35180 ft | 480 kts | 161° |
| 2026-05-06 14:46 | -14.04578 | -69.25465 | 35188 ft | 480 kts | 162° |
| 2026-05-06 14:47 | -14.10837 | -69.23208 | 35187 ft | 480 kts | 161° |
| 2026-05-06 14:47 | -14.17120 | -69.20886 | 35189 ft | 480 kts | 161° |
| 2026-05-06 14:48 | -14.23400 | -69.18542 | 35190 ft | 480 kts | 161° |
| 2026-05-06 14:48 | -14.29682 | -69.16208 | 35224 ft | 480 kts | 161° |
| 2026-05-06 14:49 | -14.35973 | -69.13874 | 35225 ft | 480 kts | 161° |
| 2026-05-06 14:49 | -14.42257 | -69.11544 | 35228 ft | 480 kts | 161° |
| 2026-05-06 14:50 | -14.48543 | -69.09216 | 35226 ft | 480 kts | 161° |
| 2026-05-06 14:50 | -14.54825 | -69.06884 | 35255 ft | 479 kts | 161° |
| 2026-05-06 14:51 | -14.61104 | -69.04551 | 35255 ft | 479 kts | 161° |
| 2026-05-06 14:51 | -14.67376 | -69.02218 | 35276 ft | 479 kts | 161° |
| 2026-05-06 14:52 | -14.73647 | -68.99882 | 35274 ft | 479 kts | 161° |
| 2026-05-06 14:52 | -14.79918 | -68.97546 | 35256 ft | 479 kts | 161° |
| 2026-05-06 14:53 | -14.86201 | -68.95199 | 35257 ft | 480 kts | 161° |
| 2026-05-06 14:53 | -14.92484 | -68.92856 | 35274 ft | 480 kts | 161° |
| 2026-05-06 14:54 | -14.98773 | -68.90516 | 35283 ft | 480 kts | 162° |
| 2026-05-06 14:54 | -15.05070 | -68.88176 | 35281 ft | 481 kts | 162° |
| 2026-05-06 14:55 | -15.11364 | -68.85829 | 35250 ft | 481 kts | 162° |
| 2026-05-06 14:55 | -15.17660 | -68.83472 | 35256 ft | 481 kts | 162° |
| 2026-05-06 14:56 | -15.23911 | -68.81130 | 35258 ft | 481 kts | 162° |
| 2026-05-06 14:56 | -15.29991 | -68.78855 | 35253 ft | 481 kts | 162° |
| 2026-05-06 14:57 | -15.36288 | -68.76503 | 35251 ft | 481 kts | 162° |
| 2026-05-06 14:57 | -15.42573 | -68.74149 | 35256 ft | 481 kts | 162° |
| 2026-05-06 14:58 | -15.48863 | -68.71787 | 35233 ft | 481 kts | 162° |
| 2026-05-06 14:58 | -15.52012 | -68.70606 | 35026 ft | 481 kts | 162° |
| 2026-05-06 14:58 | -15.55162 | -68.69424 | 34813 ft | 481 kts | 162° |
| 2026-05-06 14:58 | -15.58310 | -68.68242 | 34582 ft | 482 kts | 161° |
| 2026-05-06 14:59 | -15.61467 | -68.67056 | 34160 ft | 484 kts | 161° |
| 2026-05-06 14:59 | -15.64662 | -68.65857 | 32961 ft | 493 kts | 161° |
| 2026-05-06 14:59 | -15.67893 | -68.64644 | 31951 ft | 495 kts | 161° |
| 2026-05-06 14:59 | -15.71145 | -68.63425 | 30910 ft | 498 kts | 161° |
| 2026-05-06 15:00 | -15.74421 | -68.62199 | 29663 ft | 502 kts | 160° |
| 2026-05-06 15:00 | -15.77697 | -68.60968 | 28907 ft | 496 kts | 160° |
| 2026-05-06 15:00 | -15.80906 | -68.59757 | 28259 ft | 488 kts | 160° |
| 2026-05-06 15:00 | -15.84085 | -68.58558 | 27529 ft | 484 kts | 160° |
| 2026-05-06 15:01 | -15.87236 | -68.57371 | 26814 ft | 480 kts | 160° |
| 2026-05-06 15:01 | -15.90361 | -68.56190 | 26107 ft | 476 kts | 160° |
| 2026-05-06 15:01 | -15.93463 | -68.55020 | 25415 ft | 473 kts | 160° |
| 2026-05-06 15:01 | -15.96542 | -68.53861 | 24722 ft | 470 kts | 160° |
| 2026-05-06 15:02 | -15.99609 | -68.52707 | 24035 ft | 467 kts | 160° |
| 2026-05-06 15:02 | -16.02643 | -68.51566 | 23294 ft | 464 kts | 159° |
| 2026-05-06 15:02 | -16.05440 | -68.50512 | 22708 ft | 459 kts | 160° |
| 2026-05-06 15:02 | -16.08381 | -68.49404 | 22102 ft | 453 kts | 160° |
| 2026-05-06 15:03 | -16.11335 | -68.48291 | 21523 ft | 448 kts | 160° |
| 2026-05-06 15:03 | -16.14244 | -68.47196 | 20975 ft | 442 kts | 160° |
| 2026-05-06 15:03 | -16.17118 | -68.46113 | 20448 ft | 437 kts | 160° |
| 2026-05-06 15:03 | -16.19964 | -68.45039 | 19923 ft | 432 kts | 160° |
| 2026-05-06 15:04 | -16.22771 | -68.43978 | 19404 ft | 428 kts | 160° |
| 2026-05-06 15:04 | -16.25555 | -68.42922 | 18922 ft | 423 kts | 159° |
| 2026-05-06 15:04 | -16.28310 | -68.41878 | 18336 ft | 420 kts | 159° |
| 2026-05-06 15:04 | -16.31035 | -68.40845 | 17594 ft | 422 kts | 160° |
| 2026-05-06 15:05 | -16.33748 | -68.39817 | 16855 ft | 410 kts | 160° |
| 2026-05-06 15:05 | -16.36404 | -68.38812 | 16151 ft | 399 kts | 160° |
| 2026-05-06 15:05 | -16.38924 | -68.37858 | 16076 ft | 371 kts | 160° |
| 2026-05-06 15:05 | -16.41259 | -68.36971 | 16013 ft | 346 kts | 160° |
| 2026-05-06 15:06 | -16.43480 | -68.36228 | 15889 ft | 325 kts | 169° |
| 2026-05-06 15:06 | -16.45606 | -68.35829 | 15757 ft | 295 kts | 164° |
| 2026-05-06 15:06 | -16.47419 | -68.35044 | 15637 ft | 275 kts | 149° |
| 2026-05-06 15:06 | -16.48897 | -68.33857 | 15512 ft | 259 kts | 134° |
| 2026-05-06 15:07 | -16.49949 | -68.32464 | 15380 ft | 231 kts | 121° |
| 2026-05-06 15:07 | -16.50612 | -68.31026 | 15120 ft | 216 kts | 110° |
| 2026-05-06 15:07 | -16.50972 | -68.29506 | 14577 ft | 216 kts | 97° |
| 2026-05-06 15:07 | -16.51055 | -68.27950 | 13944 ft | 214 kts | 92° |
| 2026-05-06 15:08 | -16.51102 | -68.26461 | 13680 ft | 195 kts | 92° |
| 2026-05-06 15:08 | -16.51146 | -68.25088 | 13856 ft | 188 kts | 92° |
| 2026-05-06 15:08 | -16.51190 | -68.23722 | 13636 ft | 186 kts | 92° |
| 2026-05-06 15:08 | -16.51237 | -68.22378 | 13321 ft | 185 kts | 94° |
| 2026-05-06 15:09 | -16.51277 | -68.21047 | 13150 ft | 183 kts | 92° |
| 2026-05-06 15:09 | -16.51312 | -68.19811 | 13197 ft | 158 kts | 93° |
| 2026-05-06 15:09 | -16.51373 | -68.18608 | 13332 ft | 178 kts | 95° |
| 2026-05-06 15:09 | -16.51463 | -68.17281 | 13926 ft | 180 kts | 93° |
| 2026-05-06 15:10 | -16.51406 | -68.16032 | 14739 ft | 168 kts | 78° |
| 2026-05-06 15:10 | -16.51006 | -68.14936 | 14911 ft | 163 kts | 53° |
| 2026-05-06 15:10 | -16.50062 | -68.14182 | 13975 ft | 193 kts | 8° |
| 2026-05-06 15:10 | -16.48737 | -68.14417 | 13104 ft | 208 kts | 324° |
| 2026-05-06 15:11 | -16.47645 | -68.15384 | 13181 ft | 211 kts | 312° |
| 2026-05-06 15:11 | -16.46696 | -68.16578 | 13985 ft | 214 kts | 304° |
| 2026-05-06 15:11 | -16.45875 | -68.17903 | 14742 ft | 222 kts | 300° |
| 2026-05-06 15:11 | -16.45070 | -68.19304 | 15257 ft | 225 kts | 300° |
| 2026-05-06 15:12 | -16.44272 | -68.20699 | 15697 ft | 225 kts | 301° |
| 2026-05-06 15:12 | -16.43426 | -68.22174 | 15671 ft | 250 kts | 300° |
| 2026-05-06 15:12 | -16.42500 | -68.23801 | 15554 ft | 268 kts | 300° |
| 2026-05-06 15:12 | -16.41553 | -68.25506 | 15478 ft | 277 kts | 295° |
| 2026-05-06 15:13 | -16.40871 | -68.27373 | 15976 ft | 276 kts | 286° |
| 2026-05-06 15:13 | -16.40657 | -68.29348 | 16437 ft | 277 kts | 266° |
| 2026-05-06 15:13 | -16.40823 | -68.31361 | 16890 ft | 280 kts | 263° |
| 2026-05-06 15:13 | -16.41039 | -68.33384 | 17266 ft | 282 kts | 263° |
| 2026-05-06 15:14 | -16.41260 | -68.35405 | 17200 ft | 280 kts | 263° |
| 2026-05-06 15:14 | -16.41481 | -68.37418 | 16788 ft | 280 kts | 263° |
| 2026-05-06 15:14 | -16.42010 | -68.39327 | 16569 ft | 270 kts | 238° |
| 2026-05-06 15:14 | -16.43241 | -68.40674 | 16462 ft | 247 kts | 211° |
| 2026-05-06 15:15 | -16.44764 | -68.41302 | 16235 ft | 229 kts | 192° |
| 2026-05-06 15:15 | -16.46331 | -68.41390 | 15883 ft | 221 kts | 172° |
| 2026-05-06 15:15 | -16.47743 | -68.40994 | 15803 ft | 201 kts | 155° |
| 2026-05-06 15:15 | -16.48894 | -68.40270 | 15744 ft | 191 kts | 140° |
| 2026-05-06 15:16 | -16.49806 | -68.39281 | 15661 ft | 189 kts | 126° |
| 2026-05-06 15:16 | -16.50428 | -68.38113 | 15568 ft | 185 kts | 112° |
| 2026-05-06 15:16 | -16.50743 | -68.36857 | 15427 ft | 184 kts | 97° |
| 2026-05-06 15:16 | -16.50809 | -68.35514 | 15278 ft | 183 kts | 92° |
| 2026-05-06 15:17 | -16.50852 | -68.34192 | 15129 ft | 183 kts | 92° |
| 2026-05-06 15:17 | -16.50895 | -68.32874 | 14984 ft | 182 kts | 92° |
| 2026-05-06 15:17 | -16.50938 | -68.31560 | 14830 ft | 182 kts | 93° |
| 2026-05-06 15:17 | -16.50981 | -68.30244 | 14683 ft | 182 kts | 93° |
| 2026-05-06 15:18 | -16.51023 | -68.28942 | 14534 ft | 182 kts | 92° |
| 2026-05-06 15:18 | -16.51065 | -68.27628 | 14341 ft | 182 kts | 93° |
| 2026-05-06 15:18 | -16.51107 | -68.26311 | 14140 ft | 183 kts | 92° |
| 2026-05-06 15:18 | -16.51149 | -68.24987 | 13917 ft | 184 kts | 92° |
| 2026-05-06 15:19 | -16.51189 | -68.23630 | 13584 ft | 185 kts | 92° |
| 2026-05-06 15:19 | -16.51229 | -68.22316 | 13280 ft | 183 kts | 92° |
| 2026-05-06 15:19 | -16.51275 | -68.20995 | 13164 ft | 180 kts | 93° |
| 2026-05-06 15:19 | -16.51315 | -68.19810 | 13194 ft | 144 kts | 91° |
| 2026-05-06 15:20 | -16.51348 | -68.18905 | 13242 ft | 102 kts | 92° |
| 2026-05-06 15:20 | -16.51360 | -68.18403 | 13267 ft | 42 kts | 90° |
| 2026-05-06 15:20 | -16.51315 | -68.18287 | 13274 ft | 7 kts | 69° |
| 2026-05-06 15:20 | -16.51306 | -68.18263 | 13276 ft | 0 kts | 69° |
| 2026-05-06 15:21 | -16.51302 | -68.18251 | 13276 ft | 4 kts | 69° |
| 2026-05-06 15:21 | -16.51283 | -68.18211 | 13279 ft | 8 kts | 59° |
| 2026-05-06 15:21 | -16.51241 | -68.18152 | 13283 ft | 12 kts | 51° |
| 2026-05-06 15:21 | -16.51174 | -68.18074 | 13287 ft | 17 kts | 46° |
| 2026-05-06 15:22 | -16.51084 | -68.17977 | 13287 ft | 20 kts | 46° |
| 2026-05-06 15:22 | -16.51022 | -68.17905 | 13295 ft | 10 kts | 47° |
| 2026-05-06 15:22 | -16.50994 | -68.17853 | 13297 ft | 7 kts | 79° |
| 2026-05-06 15:22 | -16.50995 | -68.17817 | 13292 ft | 3 kts | 94° |
| 2026-05-06 15:23 | -16.50996 | -68.17805 | 13292 ft | 0 kts | 90° |
| 2026-05-06 15:24 | -16.50996 | -68.17793 | 13296 ft | 3 kts | 91° |
| 2026-05-06 15:24 | -16.50998 | -68.17756 | 13303 ft | 7 kts | 97° |
| 2026-05-06 15:25 | -16.51005 | -68.17706 | 13300 ft | 6 kts | 59° |
| 2026-05-06 15:25 | -16.50972 | -68.17688 | 13307 ft | 0 kts | 26° |